Time;durP1;ratioP1;P1;durP2;ratioP2;P2;SDS_P1;SDS_P2;PMS_P1;PMS_P2;Temp;Humidity;BMP_temperature;BMP_pressure;BME280_temperature;BME280_humidity;BME280_pressure;Samples;Min_cycle;Max_cycle;Signal;HPM_P1;HPM_P2
2021/08/20 00:02:12;;;;;;;5.78;3.92;;;;;;;16.09;74.02;99582.91;5010402;28;20042;-72
2021/08/20 00:04:37;;;;;;;13.27;5.65;;;;;;;16.05;72.80;99581.47;5009636;28;20806;-72
2021/08/20 00:07:03;;;;;;;13.52;4.43;;;;;;;16.03;73.39;99580.75;5009729;28;20061;-72
2021/08/20 00:09:29;;;;;;;8.73;5.28;;;;;;;16.02;72.75;99587.88;5009719;28;20620;-72
2021/08/20 00:11:54;;;;;;;8.57;5.05;;;;;;;16.02;72.99;99581.69;5008614;28;20054;-72
2021/08/20 00:14:20;;;;;;;7.95;4.45;;;;;;;16.02;72.55;99587.00;5011231;28;20046;-72
2021/08/20 00:16:46;;;;;;;7.45;4.32;;;;;;;15.98;72.62;99591.72;5010989;28;20037;-70
2021/08/20 00:19:11;;;;;;;9.20;4.75;;;;;;;15.96;72.44;99588.31;5012039;28;20518;-72
2021/08/20 00:21:37;;;;;;;5.95;3.70;;;;;;;15.95;72.97;99593.72;5006767;28;20037;-72
2021/08/20 00:24:04;;;;;;;6.15;4.95;;;;;;;15.93;73.21;99591.22;5000158;28;20399;-73
2021/08/20 00:26:29;;;;;;;5.78;4.25;;;;;;;15.95;72.94;99599.06;4989525;28;20038;-72
2021/08/20 00:28:54;;;;;;;5.68;4.07;;;;;;;15.92;73.29;99597.47;4989630;28;20034;-72
2021/08/20 00:31:20;;;;;;;5.63;4.13;;;;;;;15.91;73.08;99600.25;4990010;28;20046;-73
2021/08/20 00:33:46;;;;;;;7.03;4.72;;;;;;;15.87;73.27;99604.94;4990966;28;20044;-70
2021/08/20 00:36:11;;;;;;;13.88;5.03;;;;;;;15.85;73.27;99604.22;4988856;28;20110;-72
2021/08/20 00:38:38;;;;;;;6.75;4.60;;;;;;;15.84;73.48;99599.88;4989191;28;20034;-71
2021/08/20 00:41:12;;;;;;;9.52;5.35;;;;;;;15.78;73.55;99600.34;4989611;28;20050;-71
2021/08/20 00:43:39;;;;;;;7.68;5.35;;;;;;;15.73;74.13;99600.66;4989562;28;20053;-72
2021/08/20 00:46:04;;;;;;;7.38;4.95;;;;;;;15.68;74.30;99594.81;4988232;28;20546;-72
2021/08/20 00:48:29;;;;;;;8.40;5.93;;;;;;;15.65;74.59;99598.53;4987490;28;20045;-71
2021/08/20 00:51:14;;;;;;;9.43;5.22;;;;;;;15.65;74.66;99603.00;4987656;28;20043;-71
2021/08/20 00:53:40;;;;;;;10.88;5.53;;;;;;;15.60;74.86;99592.72;4989121;28;20034;-71
2021/08/20 00:56:06;;;;;;;7.70;6.00;;;;;;;15.59;74.80;99601.63;4989735;28;20093;-72
2021/08/20 00:58:32;;;;;;;11.75;5.85;;;;;;;15.56;75.08;99588.56;4988800;28;20030;-72
2021/08/20 01:00:58;;;;;;;8.80;6.05;;;;;;;15.56;74.87;99587.75;4966923;28;20447;-72
2021/08/20 01:03:27;;;;;;;7.22;5.97;;;;;;;15.53;74.85;99590.59;4992470;28;20093;-71
2021/08/20 01:05:54;;;;;;;9.68;5.82;;;;;;;15.52;74.92;99591.56;5000208;28;20245;-72
2021/08/20 01:08:24;;;;;;;7.70;5.50;;;;;;;15.47;75.07;99581.28;4993786;28;20042;-72
2021/08/20 01:10:50;;;;;;;7.72;6.05;;;;;;;15.45;75.36;99586.69;4993785;28;20376;-71
2021/08/20 01:13:17;;;;;;;11.60;7.57;;;;;;;15.40;75.43;99586.16;4993541;28;20118;-72
2021/08/20 01:15:43;;;;;;;11.57;7.25;;;;;;;15.37;75.60;99589.06;4993316;28;20066;-72
2021/08/20 01:18:09;;;;;;;8.02;6.05;;;;;;;15.37;75.66;99586.41;4992944;28;20034;-71
2021/08/20 01:20:34;;;;;;;8.82;6.78;;;;;;;15.35;75.47;99584.81;4992988;28;20062;-72
2021/08/20 01:22:59;;;;;;;10.05;5.90;;;;;;;15.34;75.69;99581.31;4992878;28;20381;-70
2021/08/20 01:25:25;;;;;;;11.02;6.72;;;;;;;15.34;75.70;99581.31;4975515;28;20053;-72
2021/08/20 01:28:07;;;;;;;13.90;7.18;;;;;;;15.31;75.71;99575.38;5008592;28;20062;-72
2021/08/20 01:30:33;;;;;;;10.18;7.03;;;;;;;15.24;76.05;99578.47;5012153;28;20449;-71
2021/08/20 01:32:58;;;;;;;13.00;7.47;;;;;;;15.23;76.35;99574.13;4993757;28;20044;-72
2021/08/20 01:35:24;;;;;;;8.80;6.80;;;;;;;15.20;76.17;99574.34;4992845;28;20469;-69
2021/08/20 01:37:49;;;;;;;10.57;7.57;;;;;;;15.21;76.38;99567.22;4992754;28;20390;-72
2021/08/20 01:40:14;;;;;;;11.82;8.10;;;;;;;15.19;76.57;99583.28;4992675;28;20046;-72
2021/08/20 01:42:40;;;;;;;12.80;8.25;;;;;;;15.18;76.55;99576.25;4991605;28;20042;-72
2021/08/20 01:45:05;;;;;;;13.75;8.43;;;;;;;15.20;76.86;99577.00;4992722;28;20569;-71
2021/08/20 01:47:31;;;;;;;12.25;7.70;;;;;;;15.20;76.81;99576.16;4991400;28;20117;-72
2021/08/20 01:49:56;;;;;;;9.93;7.22;;;;;;;15.21;76.87;99575.19;4992475;28;20465;-71
2021/08/20 01:52:21;;;;;;;11.77;8.23;;;;;;;15.21;76.70;99569.88;4995946;28;20044;-72
2021/08/20 01:54:47;;;;;;;11.15;8.10;;;;;;;15.19;76.98;99571.81;4992325;28;20023;-72
2021/08/20 01:57:12;;;;;;;11.43;8.15;;;;;;;15.19;76.72;99567.34;4990321;28;20034;-72
2021/08/20 01:59:38;;;;;;;12.55;8.02;;;;;;;15.21;76.88;99564.56;4992506;28;20039;-72
2021/08/20 02:02:04;;;;;;;11.88;7.93;;;;;;;15.24;76.57;99572.31;4991829;28;20030;-72
2021/08/20 02:04:30;;;;;;;15.15;7.93;;;;;;;15.22;76.80;99580.38;4991140;28;20113;-72
2021/08/20 02:06:55;;;;;;;9.00;6.95;;;;;;;15.25;76.98;99571.34;4991493;28;20113;-72
2021/08/20 02:09:20;;;;;;;10.73;7.30;;;;;;;15.29;76.82;99574.66;4992716;28;20046;-72
2021/08/20 02:11:46;;;;;;;9.00;6.97;;;;;;;15.31;76.79;99575.38;4992338;28;20037;-72
2021/08/20 02:14:11;;;;;;;10.18;6.53;;;;;;;15.27;76.95;99573.91;4992105;28;20098;-72
2021/08/20 02:16:36;;;;;;;10.07;6.95;;;;;;;15.27;77.18;99577.41;4990784;28;20038;-72
2021/08/20 02:19:02;;;;;;;9.43;7.00;;;;;;;15.27;77.22;99574.75;4991675;28;20616;-71
2021/08/20 02:21:27;;;;;;;12.10;7.57;;;;;;;15.27;77.07;99577.41;5006536;28;20136;-72
2021/08/20 02:23:53;;;;;;;10.07;6.50;;;;;;;15.28;77.02;99580.91;4983521;28;20030;-72
2021/08/20 02:26:18;;;;;;;11.35;7.90;;;;;;;15.24;77.44;99573.16;4972005;28;20403;-69
2021/08/20 02:28:43;;;;;;;12.35;8.55;;;;;;;15.24;77.51;99575.81;4971690;28;20038;-70
2021/08/20 02:31:09;;;;;;;13.98;7.90;;;;;;;15.25;77.81;99584.63;4972086;28;20039;-71
2021/08/20 02:33:34;;;;;;;10.60;8.18;;;;;;;15.28;77.32;99576.44;4972663;28;20047;-71
2021/08/20 02:36:02;;;;;;;12.60;8.48;;;;;;;15.28;77.51;99575.59;4974917;28;20034;-70
2021/08/20 02:38:29;;;;;;;12.90;9.93;;;;;;;15.25;77.57;99579.31;4971864;28;20078;-71
2021/08/20 02:40:54;;;;;;;11.73;8.60;;;;;;;15.24;77.82;99573.16;4971972;28;20035;-72
2021/08/20 02:43:19;;;;;;;10.35;8.50;;;;;;;15.25;77.82;99571.34;4972721;28;20042;-72
2021/08/20 02:45:45;;;;;;;10.93;8.73;;;;;;;15.24;77.62;99570.50;4972609;28;20034;-72
2021/08/20 02:48:10;;;;;;;13.57;8.73;;;;;;;15.29;77.73;99572.00;4971353;28;20041;-72
2021/08/20 02:50:35;;;;;;;9.73;7.80;;;;;;;15.29;77.99;99577.31;4972101;28;20035;-71
2021/08/20 02:53:01;;;;;;;10.38;8.40;;;;;;;15.30;78.08;99568.38;4971810;28;20034;-71
2021/08/20 02:55:26;;;;;;;17.02;9.85;;;;;;;15.30;77.67;99573.69;4971539;28;20045;-71
2021/08/20 02:57:51;;;;;;;14.85;8.63;;;;;;;15.30;77.71;99574.53;4971736;28;20113;-72
2021/08/20 03:00:17;;;;;;;12.23;8.60;;;;;;;15.30;78.21;99571.88;4971656;28;20046;-72
2021/08/20 03:02:42;;;;;;;14.25;9.32;;;;;;;15.32;78.15;99572.59;4971506;28;20149;-70
2021/08/20 03:05:08;;;;;;;15.35;8.95;;;;;;;15.34;77.80;99576.00;4970165;28;20035;-72
2021/08/20 03:07:33;;;;;;;14.25;10.85;;;;;;;15.33;78.25;99570.78;4971017;28;20038;-72
2021/08/20 03:09:58;;;;;;;10.60;9.30;;;;;;;15.32;78.08;99566.44;4971127;28;20038;-71
2021/08/20 03:12:24;;;;;;;15.48;9.77;;;;;;;15.31;78.23;99564.75;4971584;28;20561;-72
2021/08/20 03:14:51;;;;;;;12.88;10.40;;;;;;;15.30;78.51;99565.72;4971681;28;20027;-72
2021/08/20 03:17:17;;;;;;;11.43;8.55;;;;;;;15.31;78.48;99572.72;4970731;28;20034;-71
2021/08/20 03:19:42;;;;;;;15.18;11.23;;;;;;;15.29;78.58;99575.50;4971230;28;20114;-72
2021/08/20 03:22:08;;;;;;;12.30;10.70;;;;;;;15.31;78.57;99572.72;4983188;28;20042;-72
2021/08/20 03:24:33;;;;;;;16.45;11.68;;;;;;;15.31;78.57;99576.25;5007703;28;20044;-71
2021/08/20 03:26:59;;;;;;;13.07;10.20;;;;;;;15.34;78.70;99575.16;4987718;28;20458;-71
2021/08/20 03:29:24;;;;;;;13.48;10.82;;;;;;;15.36;78.82;99573.25;4990373;28;20411;-72
2021/08/20 03:31:49;;;;;;;12.52;9.27;;;;;;;15.36;78.81;99574.09;4982779;28;20434;-72
2021/08/20 03:34:15;;;;;;;11.75;8.60;;;;;;;15.38;78.82;99572.19;4971362;28;20066;-73
2021/08/20 03:36:40;;;;;;;11.43;9.15;;;;;;;15.41;78.71;99579.91;4970269;28;20726;-73
2021/08/20 03:39:05;;;;;;;12.43;9.50;;;;;;;15.44;78.50;99577.03;4970723;28;20403;-72
2021/08/20 03:41:31;;;;;;;12.98;9.00;;;;;;;15.45;78.48;99577.88;4953259;28;20403;-72
2021/08/20 03:43:56;;;;;;;17.50;10.05;;;;;;;15.45;78.63;99583.19;4978163;28;20070;-71
2021/08/20 03:46:21;;;;;;;12.73;9.65;;;;;;;15.44;78.86;99587.66;4990152;28;20046;-70
2021/08/20 03:48:47;;;;;;;11.68;9.75;;;;;;;15.46;78.79;99582.25;4990249;28;20053;-72
2021/08/20 03:51:13;;;;;;;11.10;9.20;;;;;;;15.45;78.86;99593.81;4990637;28;20042;-71
2021/08/20 03:53:38;;;;;;;11.73;9.52;;;;;;;15.46;78.64;99596.38;4989377;28;20039;-72
2021/08/20 03:56:03;;;;;;;12.73;8.98;;;;;;;15.48;78.75;99598.06;4990563;28;20042;-70
2021/08/20 03:58:29;;;;;;;11.00;9.20;;;;;;;15.47;78.87;99594.56;4989722;28;20046;-72
2021/08/20 04:00:54;;;;;;;14.63;10.20;;;;;;;15.47;78.87;99605.19;4990020;28;20037;-72
2021/08/20 04:03:23;;;;;;;17.13;10.88;;;;;;;15.47;79.10;99599.88;4990507;28;20050;-70
2021/08/20 04:05:49;;;;;;;17.70;11.13;;;;;;;15.47;79.27;99599.88;4990089;28;20030;-72
2021/08/20 04:08:15;;;;;;;15.50;11.63;;;;;;;15.44;79.40;99595.63;4989462;28;20045;-71
2021/08/20 04:10:42;;;;;;;14.55;10.70;;;;;;;15.45;79.66;99607.09;4990051;28;20115;-71
2021/08/20 04:13:08;;;;;;;15.18;11.13;;;;;;;15.43;79.97;99599.25;4988980;28;20041;-72
2021/08/20 04:15:34;;;;;;;13.60;10.65;;;;;;;15.49;79.62;99610.41;4989628;28;20034;-71
2021/08/20 04:18:00;;;;;;;11.30;8.68;;;;;;;15.52;79.27;99605.69;4989210;28;20030;-72
2021/08/20 04:20:25;;;;;;;13.00;10.10;;;;;;;15.54;79.69;99613.56;4996528;28;20049;-72
2021/08/20 04:22:50;;;;;;;13.90;9.77;;;;;;;15.57;79.40;99608.88;4999323;28;20035;-72
2021/08/20 04:25:16;;;;;;;13.30;10.23;;;;;;;15.61;79.58;99613.00;4970701;28;20031;-72
2021/08/20 04:27:41;;;;;;;14.13;11.25;;;;;;;15.66;79.26;99612.69;4969813;28;20513;-72
2021/08/20 04:30:07;;;;;;;15.00;10.73;;;;;;;15.69;79.35;99620.41;4970305;28;20112;-70
2021/08/20 04:32:32;;;;;;;17.45;11.02;;;;;;;15.70;79.25;99619.47;4970133;28;20035;-72
2021/08/20 04:34:57;;;;;;;13.18;10.55;;;;;;;15.73;79.21;99621.09;4980588;28;20637;-69
2021/08/20 04:37:23;;;;;;;15.25;12.30;;;;;;;15.75;79.43;99628.00;5002876;28;20030;-71
2021/08/20 04:39:49;;;;;;;17.88;12.80;;;;;;;15.75;79.22;99628.00;5008379;28;20038;-71
2021/08/20 04:42:15;;;;;;;16.02;11.43;;;;;;;15.74;79.55;99614.81;5009126;28;20034;-71
2021/08/20 04:44:40;;;;;;;15.55;12.00;;;;;;;15.72;79.54;99617.56;5008313;28;20212;-69
2021/08/20 04:47:06;;;;;;;15.80;12.30;;;;;;;15.72;79.35;99614.91;5008381;28;20038;-70
2021/08/20 04:49:32;;;;;;;16.98;13.40;;;;;;;15.74;79.40;99620.13;5009456;28;20132;-72
2021/08/20 04:51:58;;;;;;;14.80;12.68;;;;;;;15.76;79.39;99620.84;5008024;28;20117;-71
2021/08/20 04:54:25;;;;;;;13.93;10.43;;;;;;;15.81;79.75;99624.03;5009764;28;20042;-72
2021/08/20 04:56:50;;;;;;;21.75;14.10;;;;;;;15.81;79.21;99621.38;5006721;28;20038;-71
2021/08/20 04:59:16;;;;;;;12.98;10.20;;;;;;;15.79;79.49;99616.16;5007424;28;20045;-71
2021/08/20 05:01:41;;;;;;;16.50;12.50;;;;;;;15.81;79.42;99618.72;5008668;28;20073;-72
2021/08/20 05:04:06;;;;;;;19.38;12.77;;;;;;;15.78;79.64;99621.59;5008808;28;20104;-73
2021/08/20 05:06:32;;;;;;;20.00;12.93;;;;;;;15.76;79.34;99620.84;5007744;28;20045;-70
2021/08/20 05:08:58;;;;;;;16.85;12.02;;;;;;;15.74;79.82;99620.13;5008873;28;20065;-70
2021/08/20 05:11:23;;;;;;;14.95;10.52;;;;;;;15.76;79.66;99619.03;5009139;28;20074;-73
2021/08/20 05:13:49;;;;;;;19.25;12.32;;;;;;;15.78;79.58;99617.13;5008393;28;20038;-72
2021/08/20 05:16:14;;;;;;;13.73;10.63;;;;;;;15.78;79.63;99618.94;5008806;28;20181;-72
2021/08/20 05:18:39;;;;;;;19.75;10.95;;;;;;;15.79;79.66;99617.97;5006275;28;20034;-72
2021/08/20 05:21:05;;;;;;;15.13;11.20;;;;;;;15.80;79.61;99611.69;4998751;28;20049;-72
2021/08/20 05:23:30;;;;;;;15.18;11.35;;;;;;;15.82;79.73;99621.22;4976911;28;20126;-68
2021/08/20 05:25:56;;;;;;;16.70;10.25;;;;;;;15.84;79.34;99623.78;4969672;28;20045;-71
2021/08/20 05:28:21;;;;;;;30.13;10.48;;;;;;;15.83;79.36;99627.41;4969466;28;20039;-71
2021/08/20 05:30:46;;;;;;;17.85;10.38;;;;;;;15.79;79.30;99624.13;4969405;28;20054;-73
2021/08/20 05:33:12;;;;;;;13.38;9.25;;;;;;;15.79;79.39;99625.94;4969784;28;20521;-71
2021/08/20 05:35:38;;;;;;;16.40;10.05;;;;;;;15.76;79.43;99631.50;4967368;28;20086;-72
2021/08/20 05:38:04;;;;;;;16.55;10.98;;;;;;;15.77;79.90;99630.50;4969445;28;20034;-72
2021/08/20 05:40:29;;;;;;;15.15;9.23;;;;;;;15.76;79.64;99624.34;4974603;28;20042;-72
2021/08/20 05:42:55;;;;;;;11.77;8.80;;;;;;;15.79;79.68;99629.44;4979052;28;20041;-72
2021/08/20 05:45:20;;;;;;;13.80;9.45;;;;;;;15.82;79.50;99623.03;4979225;28;20486;-72
2021/08/20 05:47:45;;;;;;;15.40;8.90;;;;;;;15.91;79.33;99630.34;4979514;28;20457;-73
2021/08/20 05:50:11;;;;;;;12.50;7.75;;;;;;;15.97;79.38;99626.38;4977792;28;20041;-71
2021/08/20 05:52:40;;;;;;;12.18;9.35;;;;;;;16.05;78.82;99629.34;4982657;28;20085;-74
2021/08/20 05:55:07;;;;;;;13.27;9.02;;;;;;;16.15;79.04;99630.34;4984628;28;20035;-73
2021/08/20 05:57:33;;;;;;;10.10;8.05;;;;;;;16.25;78.70;99630.50;4982652;28;20431;-71
2021/08/20 05:59:58;;;;;;;8.02;6.93;;;;;;;16.33;78.32;99635.25;4985118;28;20074;-72
2021/08/20 06:02:23;;;;;;;12.13;8.45;;;;;;;16.39;77.91;99630.31;4987115;28;20069;-68
2021/08/20 06:04:49;;;;;;;11.80;7.88;;;;;;;16.48;78.07;99645.56;4984362;28;20031;-69
2021/08/20 06:07:14;;;;;;;9.50;6.90;;;;;;;16.57;77.96;99645.84;4982662;28;20134;-69
2021/08/20 06:09:40;;;;;;;9.82;5.82;;;;;;;16.64;77.75;99642.59;4981250;28;20085;-69
2021/08/20 06:12:06;;;;;;;7.07;6.28;;;;;;;16.72;77.25;99645.50;4982896;28;20101;-69
2021/08/20 06:14:33;;;;;;;6.85;6.03;;;;;;;16.79;77.25;99645.06;4987133;28;20042;-68
2021/08/20 06:16:58;;;;;;;6.57;5.22;;;;;;;16.82;76.75;99647.50;4982160;28;20061;-67
2021/08/20 06:19:25;;;;;;;10.30;5.15;;;;;;;16.81;76.50;99646.66;4981437;28;20487;-67
2021/08/20 06:21:51;;;;;;;6.93;4.10;;;;;;;16.80;76.60;99654.75;5006954;28;20084;-67
2021/08/20 06:24:17;;;;;;;4.70;3.85;;;;;;;16.79;76.68;99655.72;5002153;28;20454;-67
2021/08/20 06:26:45;;;;;;;5.60;4.25;;;;;;;16.80;76.55;99652.09;5000238;28;20034;-67
2021/08/20 06:29:11;;;;;;;9.43;3.88;;;;;;;16.82;76.60;99658.97;5001326;28;20038;-67
2021/08/20 06:31:36;;;;;;;4.88;3.58;;;;;;;16.78;76.61;99657.50;5002520;28;20381;-66
2021/08/20 06:34:01;;;;;;;5.20;3.40;;;;;;;16.83;76.66;99658.00;5002346;28;20058;-67
2021/08/20 06:36:27;;;;;;;3.45;2.95;;;;;;;16.84;76.41;99659.72;4999031;28;20034;-67
2021/08/20 06:38:52;;;;;;;4.72;3.88;;;;;;;16.83;76.45;99663.34;4982971;28;20042;-67
2021/08/20 06:41:19;;;;;;;5.03;3.70;;;;;;;16.86;76.59;99663.13;4993164;28;20033;-67
2021/08/20 06:43:44;;;;;;;4.43;3.15;;;;;;;16.89;76.45;99668.19;4991437;28;20041;-67
2021/08/20 06:46:09;;;;;;;5.03;3.13;;;;;;;16.86;76.46;99660.44;4998674;28;20030;-66
2021/08/20 06:48:34;;;;;;;4.20;3.10;;;;;;;16.87;76.49;99663.97;5004396;28;20048;-66
2021/08/20 06:51:00;;;;;;;5.10;3.85;;;;;;;16.83;77.16;99665.16;5000718;28;20053;-66
2021/08/20 06:53:25;;;;;;;4.60;2.88;;;;;;;16.78;78.26;99665.50;5000471;28;20033;-65
2021/08/20 06:55:51;;;;;;;4.95;3.50;;;;;;;16.75;78.69;99665.72;5005013;28;20057;-67
2021/08/20 06:58:16;;;;;;;4.53;2.92;;;;;;;16.71;78.81;99666.91;4994237;28;20039;-66
2021/08/20 07:00:41;;;;;;;5.78;4.07;;;;;;;16.68;79.64;99668.00;4987771;28;20040;-67
2021/08/20 07:03:07;;;;;;;3.53;2.72;;;;;;;16.71;80.26;99672.22;4983858;28;20483;-67
2021/08/20 07:05:33;;;;;;;3.50;2.38;;;;;;;16.72;79.99;99669.47;4985376;28;20089;-67
2021/08/20 07:07:58;;;;;;;4.00;2.72;;;;;;;16.68;80.06;99670.66;4984986;28;20399;-68
2021/08/20 07:10:24;;;;;;;4.53;2.60;;;;;;;16.68;80.30;99669.81;4985468;28;20038;-70
2021/08/20 07:12:49;;;;;;;3.33;2.15;;;;;;;16.72;80.84;99680.09;4986096;28;20034;-73
2021/08/20 07:15:14;;;;;;;4.45;2.78;;;;;;;16.73;80.27;99672.97;4983972;28;20050;-71
2021/08/20 07:17:41;;;;;;;3.35;1.98;;;;;;;16.74;79.72;99680.00;4982818;28;20060;-70
2021/08/20 07:20:08;;;;;;;3.47;2.22;;;;;;;16.78;79.85;99676.16;4986642;28;20030;-70
2021/08/20 07:22:33;;;;;;;3.35;2.03;;;;;;;16.85;80.53;99682.69;4980875;28;20043;-71
2021/08/20 07:24:58;;;;;;;2.70;2.05;;;;;;;16.86;80.28;99681.75;4963912;28;20177;-74
2021/08/20 07:27:24;;;;;;;4.75;1.83;;;;;;;16.90;80.13;99679.69;4965785;28;20538;-73
2021/08/20 07:29:50;;;;;;;3.25;2.35;;;;;;;16.98;80.88;99690.59;4970404;28;20086;-70
2021/08/20 07:32:16;;;;;;;2.88;2.10;;;;;;;17.06;80.82;99684.69;4972604;28;20149;-70
2021/08/20 07:34:42;;;;;;;2.40;1.85;;;;;;;17.08;80.27;99688.06;4977819;28;20495;-71
2021/08/20 07:37:08;;;;;;;9.45;2.60;;;;;;;17.09;80.79;99689.78;4985323;28;20064;-70
2021/08/20 07:39:36;;;;;;;2.97;1.80;;;;;;;17.10;80.28;99688.78;4977750;28;20609;-71
2021/08/20 07:42:02;;;;;;;3.42;1.70;;;;;;;17.11;80.98;99695.84;4974866;28;20046;-70
2021/08/20 07:44:28;;;;;;;2.50;2.00;;;;;;;17.09;80.80;99693.28;4979059;28;20117;-71
2021/08/20 07:46:53;;;;;;;3.00;2.22;;;;;;;17.08;80.47;99693.38;4982581;28;20622;-70
2021/08/20 07:49:19;;;;;;;3.08;1.75;;;;;;;17.03;80.44;99701.75;4984708;28;20038;-70
2021/08/20 07:51:44;;;;;;;1.88;1.70;;;;;;;16.97;80.75;99693.38;4984222;28;20045;-71
2021/08/20 07:54:09;;;;;;;1.75;1.40;;;;;;;16.99;81.08;99699.44;4984694;28;20112;-70
2021/08/20 07:56:35;;;;;;;1.83;1.20;;;;;;;16.97;81.54;99698.72;4983932;28;20060;-70
2021/08/20 07:59:00;;;;;;;3.10;1.40;;;;;;;16.95;81.50;99699.66;4984659;28;20038;-70
2021/08/20 08:01:26;;;;;;;1.50;1.10;;;;;;;16.95;81.91;99704.16;4984619;28;20117;-69
2021/08/20 08:03:57;;;;;;;1.77;1.30;;;;;;;16.92;81.76;99699.06;4984775;28;20513;-70
2021/08/20 08:06:23;;;;;;;2.50;1.50;;;;;;;16.95;81.51;99705.00;4984199;28;20042;-71
2021/08/20 08:08:49;;;;;;;1.60;1.30;;;;;;;17.01;81.82;99708.19;4984129;28;20100;-70
2021/08/20 08:11:14;;;;;;;1.27;1.17;;;;;;;17.07;81.55;99710.34;4984142;28;20042;-71
2021/08/20 08:13:40;;;;;;;7.32;5.72;;;;;;;17.20;81.90;99708.41;4983882;28;20143;-70
2021/08/20 08:16:05;;;;;;;2.25;1.75;;;;;;;17.33;81.47;99711.84;4980965;28;20209;-69
2021/08/20 08:18:30;;;;;;;2.80;1.67;;;;;;;17.46;80.61;99709.03;4983234;28;20546;-70
2021/08/20 08:20:56;;;;;;;2.65;1.65;;;;;;;17.58;80.25;99710.72;4980777;28;20117;-70
2021/08/20 08:23:21;;;;;;;2.63;1.85;;;;;;;17.65;80.07;99715.59;4971209;28;20042;-70
2021/08/20 08:25:47;;;;;;;1.92;1.60;;;;;;;17.70;79.94;99721.41;4964592;28;20046;-72
2021/08/20 08:28:13;;;;;;;2.50;1.90;;;;;;;17.72;79.05;99714.97;4964080;28;20463;-69
2021/08/20 08:30:40;;;;;;;1.67;1.55;;;;;;;17.80;78.95;99719.72;4981230;28;20129;-70
2021/08/20 08:33:07;;;;;;;4.38;2.08;;;;;;;17.87;78.33;99726.25;4983306;28;20038;-70
2021/08/20 08:35:33;;;;;;;4.65;1.98;;;;;;;17.96;77.72;99727.31;4983232;28;20080;-70
2021/08/20 08:38:06;;;;;;;2.03;1.67;;;;;;;18.00;77.25;99724.28;4982484;28;20034;-71
2021/08/20 08:40:33;;;;;;;4.75;1.92;;;;;;;17.98;76.92;99731.56;4980465;28;20466;-70
2021/08/20 08:42:59;;;;;;;3.22;1.85;;;;;;;18.00;77.73;99718.09;4983306;28;20041;-70
2021/08/20 08:45:25;;;;;;;3.78;2.13;;;;;;;18.03;77.75;99726.69;4981832;28;20117;-71
2021/08/20 08:47:55;;;;;;;2.75;1.75;;;;;;;18.05;77.34;99729.25;4982438;28;20046;-71
2021/08/20 08:50:22;;;;;;;1.98;1.52;;;;;;;18.08;77.02;99730.81;4980276;28;20042;-71
2021/08/20 08:52:47;;;;;;;2.30;1.95;;;;;;;18.11;78.12;99726.06;4981561;28;20054;-70
2021/08/20 08:55:13;;;;;;;4.07;2.20;;;;;;;18.17;77.95;99728.25;4983268;28;20053;-70
2021/08/20 08:57:38;;;;;;;5.70;2.58;;;;;;;18.28;77.77;99732.69;4981554;28;20118;-70
2021/08/20 09:00:06;;;;;;;3.42;2.00;;;;;;;18.40;75.88;99722.84;4978686;28;20117;-70
2021/08/20 09:02:34;;;;;;;2.58;1.98;;;;;;;18.59;75.74;99728.34;4979133;28;20034;-70
2021/08/20 09:05:03;;;;;;;4.57;2.10;;;;;;;18.73;75.46;99735.22;4984889;28;20506;-71
2021/08/20 09:07:29;;;;;;;2.95;1.77;;;;;;;18.80;73.76;99731.09;4978796;28;20568;-70
2021/08/20 09:10:13;;;;;;;4.43;2.00;;;;;;;18.91;73.89;99732.84;4981373;28;20047;-70
2021/08/20 09:12:50;;;;;;;3.28;1.70;;;;;;;18.97;72.96;99736.78;4982687;28;20069;-71
2021/08/20 09:15:21;;;;;;;4.05;2.28;;;;;;;19.33;71.96;99727.44;4982580;28;20133;-70
2021/08/20 09:18:07;;;;;;;3.75;2.15;;;;;;;19.40;70.64;99735.78;4982289;28;22235;-72
2021/08/20 09:20:35;;;;;;;10.15;2.83;;;;;;;19.36;72.41;99726.34;4981592;28;20042;-70
2021/08/20 09:23:15;;;;;;;2.63;1.83;;;;;;;19.36;72.01;99729.00;4980160;28;20038;-70
2021/08/20 09:25:45;;;;;;;3.85;2.00;;;;;;;19.28;71.84;99725.16;4982517;28;20133;-69
2021/08/20 09:28:14;;;;;;;2.97;2.15;;;;;;;19.34;72.19;99738.97;4986404;28;20045;-70
2021/08/20 09:30:42;;;;;;;4.38;1.88;;;;;;;19.51;70.07;99733.00;4985077;28;20039;-70
2021/08/20 09:33:15;;;;;;;2.15;1.83;;;;;;;19.88;68.80;99727.13;4986546;28;20487;-70
2021/08/20 09:35:40;;;;;;;4.50;2.20;;;;;;;20.30;67.29;99730.44;4986493;28;20038;-70
2021/08/20 09:38:08;;;;;;;2.72;2.40;;;;;;;20.84;66.40;99728.22;4984255;28;20121;-71
2021/08/20 09:40:33;;;;;;;2.83;1.88;;;;;;;21.17;65.02;99723.38;4985548;28;20129;-71
2021/08/20 09:43:20;;;;;;;3.90;2.00;;;;;;;21.45;63.82;99721.63;4987489;28;20064;-70
2021/08/20 09:46:13;;;;;;;3.20;2.28;;;;;;;21.22;64.20;99716.59;4988382;28;20027;-71
2021/08/20 09:48:52;;;;;;;3.70;2.10;;;;;;;20.91;64.71;99712.44;4983976;28;20046;-70
2021/08/20 09:51:30;;;;;;;3.70;2.40;;;;;;;20.78;65.86;99715.41;4986790;28;20533;-69
2021/08/20 09:53:59;;;;;;;6.28;4.72;;;;;;;20.66;65.70;99717.38;4985490;28;20116;-70
2021/08/20 09:56:26;;;;;;;3.80;2.60;;;;;;;20.55;65.93;99721.06;4985630;28;20180;-71
2021/08/20 09:58:54;;;;;;;2.28;1.83;;;;;;;20.39;65.85;99726.09;4980430;28;20034;-71
2021/08/20 10:01:21;;;;;;;2.90;1.80;;;;;;;20.31;66.27;99726.78;4985187;28;20556;-71
2021/08/20 10:03:47;;;;;;;4.15;2.00;;;;;;;20.17;66.81;99724.53;4985690;28;20038;-71
2021/08/20 10:06:14;;;;;;;3.42;2.20;;;;;;;20.35;66.82;99722.00;4986181;28;20027;-71
2021/08/20 10:08:40;;;;;;;5.90;1.85;;;;;;;21.58;62.99;99724.81;4985329;28;20062;-72
2021/08/20 10:11:05;;;;;;;3.63;2.10;;;;;;;22.18;61.71;99713.63;4985516;28;20080;-72
2021/08/20 10:13:32;;;;;;;4.68;2.33;;;;;;;23.01;58.69;99717.91;4985550;28;20064;-71
2021/08/20 10:16:01;;;;;;;9.02;2.05;;;;;;;23.81;55.74;99717.72;4983471;28;20041;-70
2021/08/20 10:18:28;;;;;;;3.92;2.25;;;;;;;23.51;56.00;99718.06;4986545;28;20041;-69
2021/08/20 10:20:55;;;;;;;5.00;2.20;;;;;;;23.35;56.90;99710.72;4995057;28;20090;-70
2021/08/20 10:23:20;;;;;;;3.47;2.10;;;;;;;23.57;56.18;99708.47;4994896;28;20042;-71
2021/08/20 10:25:46;;;;;;;4.57;2.15;;;;;;;22.94;56.30;99709.63;4996473;28;20489;-71
2021/08/20 10:28:13;;;;;;;8.25;2.25;;;;;;;22.44;58.20;99711.03;4991953;28;20069;-70
2021/08/20 10:30:43;;;;;;;4.25;2.33;;;;;;;22.09;58.61;99712.66;4997582;28;20113;-71
2021/08/20 10:33:09;;;;;;;2.60;1.70;;;;;;;21.81;60.02;99721.75;4999107;28;20097;-70
2021/08/20 10:35:51;;;;;;;3.03;2.13;;;;;;;21.51;60.81;99720.19;4998219;28;20087;-70
2021/08/20 10:38:24;;;;;;;4.18;2.30;;;;;;;21.37;61.55;99730.38;4995627;28;20088;-71
2021/08/20 10:41:19;;;;;;;3.65;1.90;;;;;;;21.36;62.59;99719.78;4998560;28;20050;-71
2021/08/20 10:43:55;;;;;;;4.15;2.28;;;;;;;21.71;60.60;99719.13;4995392;28;20200;-71
2021/08/20 10:46:32;;;;;;;2.63;1.67;;;;;;;21.95;60.06;99720.38;4994174;28;20049;-71
2021/08/20 10:51:55;;;;;;;2.47;1.73;;;;;;;22.76;57.17;99720.38;5000204;28;20045;-71
2021/08/20 10:54:30;;;;;;;2.15;1.92;;;;;;;22.81;56.06;99728.81;4999515;28;20046;-71
2021/08/20 10:56:55;;;;;;;2.53;1.55;;;;;;;23.05;55.65;99716.59;4996907;28;20064;-71
2021/08/20 10:59:44;;;;;;;2.80;1.85;;;;;;;23.51;55.31;99722.59;5002051;28;20085;-72
2021/08/20 11:02:18;;;;;;;2.20;1.80;;;;;;;23.71;54.14;99717.81;4990484;28;20530;-71
2021/08/20 11:05:09;;;;;;;4.07;1.75;;;;;;;23.58;52.47;99718.25;4997191;28;20034;-71
2021/08/20 11:07:38;;;;;;;4.50;2.05;;;;;;;23.47;52.65;99723.91;4998668;28;20062;-70
2021/08/20 11:10:09;;;;;;;4.43;1.92;;;;;;;23.33;51.75;99715.44;4993798;28;20690;-70
2021/08/20 11:12:58;;;;;;;4.85;2.35;;;;;;;23.40;52.42;99715.63;4994653;28;20039;-70
2021/08/20 11:15:23;;;;;;;3.92;1.83;;;;;;;23.39;52.56;99721.19;4989345;28;20033;-71
2021/08/20 11:17:52;;;;;;;4.68;1.70;;;;;;;23.33;52.87;99712.75;5001423;28;20536;-71
2021/08/20 11:20:19;;;;;;;5.63;1.88;;;;;;;23.15;53.35;99718.16;4996535;28;20464;-70
2021/08/20 11:22:44;;;;;;;4.80;2.10;;;;;;;22.97;53.59;99719.22;4995694;28;20038;-71
2021/08/20 11:25:12;;;;;;;3.88;2.45;;;;;;;23.06;53.95;99719.16;4980427;28;20093;-70
2021/08/20 11:27:39;;;;;;;2.78;1.70;;;;;;;23.00;52.98;99711.69;4986002;28;20054;-71
2021/08/20 11:30:06;;;;;;;2.50;1.75;;;;;;;23.15;52.92;99714.66;4984786;28;20051;-71
2021/08/20 11:32:31;;;;;;;2.00;1.70;;;;;;;22.82;52.96;99716.25;4976435;28;20038;-71